createdAt,value
2023-05-08T00:02:06.156Z,5.93
2023-05-08T00:04:33.191Z,5.93
2023-05-08T00:07:00.054Z,6.37
2023-05-08T00:09:26.881Z,6.03
2023-05-08T00:11:53.876Z,5.60
2023-05-08T00:14:20.728Z,5.80
2023-05-08T00:16:47.577Z,5.67
2023-05-08T00:19:14.571Z,5.77
2023-05-08T00:21:41.351Z,5.83
2023-05-08T00:24:08.429Z,5.87
2023-05-08T00:26:35.235Z,5.87
2023-05-08T00:29:02.113Z,6.27
2023-05-08T00:31:29.111Z,5.90
2023-05-08T00:33:56.033Z,5.13
2023-05-08T00:36:22.945Z,6.03
2023-05-08T00:38:49.727Z,5.77
2023-05-08T00:41:16.622Z,6.40
2023-05-08T00:43:43.617Z,6.03
2023-05-08T00:46:11.596Z,6.10
2023-05-08T00:48:39.829Z,5.70
2023-05-08T00:51:09.724Z,6.40
2023-05-08T00:53:39.789Z,6.30
2023-05-08T00:56:10.431Z,6.13
2023-05-08T00:58:37.783Z,6.70
2023-05-08T01:01:05.038Z,6.60
2023-05-08T01:03:36.082Z,6.97
2023-05-08T01:06:03.975Z,7.00
2023-05-08T01:08:32.073Z,6.60
2023-05-08T01:11:06.632Z,6.57
2023-05-08T01:14:09.820Z,6.67
2023-05-08T01:17:09.821Z,6.50
2023-05-08T01:20:15.295Z,6.30
2023-05-08T01:23:14.496Z,6.80
2023-05-08T01:25:53.395Z,6.33
2023-05-08T01:28:35.196Z,6.73
2023-05-08T01:31:11.920Z,6.87
2023-05-08T01:33:45.250Z,6.90
2023-05-08T01:36:25.290Z,7.27
2023-05-08T01:39:14.376Z,7.30
2023-05-08T01:41:45.451Z,6.70
2023-05-08T01:44:16.989Z,6.83
2023-05-08T01:46:49.066Z,7.33
2023-05-08T01:49:34.635Z,7.37
2023-05-08T01:52:08.911Z,7.23
2023-05-08T01:55:01.118Z,7.40
2023-05-08T01:57:30.179Z,7.47
2023-05-08T02:00:00.122Z,7.70
2023-05-08T02:02:30.317Z,7.67
2023-05-08T02:04:58.285Z,8.03
2023-05-08T02:07:25.988Z,7.60
2023-05-08T02:09:54.909Z,7.73
2023-05-08T02:12:23.039Z,8.20
2023-05-08T02:14:52.969Z,7.93
2023-05-08T02:17:20.950Z,8.03
2023-05-08T02:19:49.601Z,8.40
2023-05-08T02:22:18.491Z,8.07
2023-05-08T02:24:46.622Z,8.43
2023-05-08T02:27:14.318Z,9.50
2023-05-08T02:29:42.826Z,8.60
2023-05-08T02:32:10.608Z,8.00
2023-05-08T02:34:42.873Z,8.53
2023-05-08T02:37:16.908Z,9.07
2023-05-08T02:39:44.987Z,8.13
2023-05-08T02:42:12.374Z,9.33
2023-05-08T02:44:39.430Z,8.83
2023-05-08T02:47:21.390Z,9.33
2023-05-08T02:50:13.285Z,8.47
2023-05-08T02:52:49.694Z,9.00
2023-05-08T02:55:42.728Z,9.40
2023-05-08T02:58:24.273Z,9.80
2023-05-08T03:00:58.703Z,9.77
2023-05-08T03:03:48.763Z,10.23
2023-05-08T03:06:21.828Z,9.33
2023-05-08T03:08:50.753Z,10.10
2023-05-08T03:11:25.966Z,9.97
2023-05-08T03:13:59.020Z,9.90
2023-05-08T03:16:31.320Z,9.63
2023-05-08T03:19:01.828Z,10.30
2023-05-08T03:21:31.338Z,9.83
2023-05-08T03:24:02.204Z,9.97
2023-05-08T03:26:29.823Z,9.63
2023-05-08T03:28:58.117Z,10.77
2023-05-08T03:31:26.894Z,10.20
2023-05-08T03:33:55.568Z,10.93
2023-05-08T03:36:22.823Z,11.33
2023-05-08T03:38:49.812Z,10.60
2023-05-08T03:41:17.093Z,10.03
2023-05-08T03:43:44.380Z,11.20
2023-05-08T03:46:12.690Z,11.47
2023-05-08T03:48:41.421Z,11.80
2023-05-08T03:51:08.573Z,10.97
2023-05-08T03:53:35.658Z,10.80
2023-05-08T03:56:03.031Z,11.03
2023-05-08T03:58:50.327Z,11.23
2023-05-08T04:01:37.562Z,11.30
2023-05-08T04:04:13.124Z,10.00
2023-05-08T04:06:50.756Z,12.03
2023-05-08T04:09:43.115Z,11.00
2023-05-08T04:12:15.216Z,10.70
2023-05-08T04:14:56.250Z,11.10
2023-05-08T04:17:34.999Z,11.23
2023-05-08T04:20:04.675Z,11.20
2023-05-08T04:22:33.797Z,11.57
2023-05-08T04:25:05.724Z,10.70
2023-05-08T04:27:33.146Z,11.17
2023-05-08T04:30:01.087Z,11.60
2023-05-08T04:32:29.395Z,10.77
2023-05-08T04:34:56.570Z,11.00
2023-05-08T04:37:26.067Z,11.23
2023-05-08T04:39:53.205Z,10.83
2023-05-08T04:42:21.150Z,10.33
2023-05-08T04:44:48.159Z,10.80
2023-05-08T04:47:15.153Z,10.50
2023-05-08T04:49:42.252Z,10.30
2023-05-08T04:52:09.255Z,9.50
2023-05-08T04:54:36.304Z,9.53
2023-05-08T04:57:04.006Z,8.70
2023-05-08T04:59:30.851Z,8.87
2023-05-08T05:01:58.457Z,9.00
2023-05-08T05:04:25.422Z,8.60
2023-05-08T05:06:52.191Z,8.67
2023-05-08T05:09:19.116Z,8.80
2023-05-08T05:11:46.531Z,8.77
2023-05-08T05:14:13.534Z,8.33
2023-05-08T05:16:40.527Z,7.80
2023-05-08T05:19:07.351Z,7.30
2023-05-08T05:21:34.149Z,7.67
2023-05-08T05:24:01.083Z,7.60
2023-05-08T05:26:27.945Z,7.47
2023-05-08T05:28:54.803Z,7.38
2023-05-08T05:31:21.823Z,7.25
2023-05-08T05:33:48.740Z,7.57
2023-05-08T05:36:15.631Z,6.72
2023-05-08T05:38:42.610Z,7.18
2023-05-08T05:41:09.351Z,7.50
2023-05-08T05:43:36.175Z,7.32
2023-05-08T05:46:07.179Z,6.95
2023-05-08T05:48:34.446Z,7.20
2023-05-08T05:51:01.887Z,7.40
2023-05-08T05:53:29.716Z,7.90
2023-05-08T05:55:56.573Z,7.50
2023-05-08T05:58:23.561Z,7.22
2023-05-08T06:00:50.823Z,7.90
2023-05-08T06:03:17.773Z,7.88
2023-05-08T06:05:47.030Z,7.82
2023-05-08T06:08:14.043Z,8.20
2023-05-08T06:10:40.866Z,7.47
2023-05-08T06:13:09.654Z,7.40
2023-05-08T06:15:37.127Z,7.68
2023-05-08T06:18:04.299Z,7.30
2023-05-08T06:20:31.435Z,7.90
2023-05-08T06:22:58.879Z,7.90
2023-05-08T06:25:25.647Z,7.10
2023-05-08T06:27:52.413Z,7.43
2023-05-08T06:30:19.534Z,7.72
2023-05-08T06:32:46.730Z,7.10
2023-05-08T06:35:15.811Z,7.70
2023-05-08T06:37:42.848Z,7.57
2023-05-08T06:40:12.499Z,7.18
2023-05-08T06:42:40.500Z,6.93
2023-05-08T06:45:11.242Z,7.10
2023-05-08T06:47:38.517Z,8.15
2023-05-08T06:50:06.166Z,7.40
2023-05-08T06:52:33.142Z,7.90
2023-05-08T06:55:00.169Z,8.20
2023-05-08T06:57:29.220Z,8.80
2023-05-08T06:59:57.202Z,7.88
2023-05-08T07:02:24.104Z,8.75
2023-05-08T07:04:50.930Z,8.57
2023-05-08T07:07:17.996Z,8.88
2023-05-08T07:09:44.800Z,8.85
2023-05-08T07:12:11.782Z,8.23
2023-05-08T07:14:39.081Z,8.57
2023-05-08T07:17:08.532Z,7.93
2023-05-08T07:19:36.483Z,9.35
2023-05-08T07:22:03.833Z,9.10
2023-05-08T07:24:31.073Z,9.00
2023-05-08T07:26:59.646Z,8.80
2023-05-08T07:29:27.640Z,9.30
2023-05-08T07:31:54.513Z,10.17
2023-05-08T07:34:21.447Z,9.77
2023-05-08T07:36:48.307Z,9.70
2023-05-08T07:39:15.522Z,9.70
2023-05-08T07:41:43.068Z,9.07
2023-05-08T07:44:10.212Z,9.27
2023-05-08T07:46:37.401Z,8.67
2023-05-08T07:49:04.336Z,8.07
2023-05-08T07:51:31.891Z,9.10
2023-05-08T07:53:59.108Z,8.20
2023-05-08T07:56:27.262Z,8.70
2023-05-08T07:58:54.464Z,8.32
2023-05-08T08:01:21.420Z,8.40
2023-05-08T08:03:49.045Z,9.00
2023-05-08T08:06:16.156Z,8.60
2023-05-08T08:08:42.982Z,9.02
2023-05-08T08:11:10.127Z,8.65
2023-05-08T08:13:37.155Z,9.10
2023-05-08T08:16:04.563Z,8.25
2023-05-08T08:18:35.701Z,8.30
2023-05-08T08:21:08.015Z,8.43
2023-05-08T08:23:34.930Z,9.07
2023-05-08T08:26:01.691Z,9.00
2023-05-08T08:28:28.764Z,8.73
2023-05-08T08:30:55.942Z,8.23
2023-05-08T08:33:22.857Z,9.03
2023-05-08T08:35:50.446Z,8.87
2023-05-08T08:38:17.176Z,7.93
2023-05-08T08:40:44.322Z,8.20
2023-05-08T08:43:11.338Z,7.73
2023-05-08T08:45:38.244Z,8.30
2023-05-08T08:48:09.923Z,8.47
2023-05-08T08:50:41.163Z,8.10
2023-05-08T08:53:22.593Z,7.97
2023-05-08T08:55:54.252Z,8.57
2023-05-08T08:58:30.157Z,8.00
2023-05-08T09:00:59.629Z,8.77
2023-05-08T09:03:27.757Z,8.13
2023-05-08T09:05:55.311Z,7.43
2023-05-08T09:08:22.427Z,8.30
2023-05-08T09:10:49.263Z,8.18
2023-05-08T09:13:17.312Z,7.18
2023-05-08T09:15:46.397Z,7.18
2023-05-08T09:18:13.675Z,6.93
2023-05-08T09:20:41.541Z,6.63
2023-05-08T09:23:08.872Z,7.20
2023-05-08T09:25:45.875Z,6.43
2023-05-08T09:28:24.323Z,6.85
2023-05-08T09:30:55.271Z,6.45
2023-05-08T09:33:27.289Z,7.00
2023-05-08T09:35:55.660Z,6.38
2023-05-08T09:38:44.276Z,6.28
2023-05-08T09:41:17.217Z,6.63
2023-05-08T09:43:45.910Z,5.88
2023-05-08T09:46:24.561Z,6.63
2023-05-08T09:48:53.641Z,6.38
2023-05-08T09:51:21.521Z,6.57
2023-05-08T09:53:54.462Z,6.63
2023-05-08T09:56:40.053Z,6.55
2023-05-08T09:59:26.942Z,6.63
2023-05-08T10:01:54.525Z,7.20
2023-05-08T10:04:34.905Z,6.50
2023-05-08T10:07:02.780Z,6.90
2023-05-08T10:09:42.594Z,6.22
2023-05-08T10:12:17.343Z,6.85
2023-05-08T10:14:46.681Z,6.20
2023-05-08T10:17:18.755Z,7.00
2023-05-08T10:19:48.423Z,6.38
2023-05-08T10:22:16.800Z,6.90
2023-05-08T10:24:47.039Z,6.30
2023-05-08T10:27:39.357Z,6.68
2023-05-08T10:30:09.947Z,6.25
2023-05-08T10:32:43.991Z,6.97
2023-05-08T10:35:12.331Z,6.15
2023-05-08T10:37:42.653Z,7.10
2023-05-08T10:40:11.408Z,6.00
2023-05-08T10:42:39.709Z,5.60
2023-05-08T10:45:07.561Z,6.47
2023-05-08T10:47:44.835Z,6.25
2023-05-08T10:50:42.719Z,5.97
2023-05-08T10:53:19.180Z,6.40
2023-05-08T10:55:50.597Z,5.78
2023-05-08T10:58:23.762Z,5.95
2023-05-08T11:00:53.390Z,7.25
2023-05-08T11:03:31.526Z,6.05
2023-05-08T11:06:01.860Z,6.90
2023-05-08T11:08:30.947Z,6.78
2023-05-08T11:11:05.350Z,6.50
2023-05-08T11:13:36.762Z,6.82
2023-05-08T11:16:07.175Z,7.50
2023-05-08T11:18:48.488Z,7.72
2023-05-08T11:21:21.814Z,7.18
2023-05-08T11:23:57.377Z,7.45
2023-05-08T11:26:41.227Z,6.65
2023-05-08T11:29:17.680Z,6.80
2023-05-08T11:31:51.634Z,7.35
2023-05-08T11:34:43.998Z,7.88
2023-05-08T11:37:19.132Z,7.07
2023-05-08T11:39:46.904Z,7.15
2023-05-08T11:42:37.282Z,8.60
2023-05-08T11:45:11.305Z,8.18
2023-05-08T11:47:44.570Z,8.32
2023-05-08T11:50:13.455Z,7.57
2023-05-08T11:52:42.226Z,8.80
2023-05-08T11:55:11.411Z,9.30
2023-05-08T11:57:39.724Z,8.75
2023-05-08T12:00:12.210Z,8.35
2023-05-08T12:02:41.661Z,8.93
2023-05-08T12:05:12.290Z,8.40
2023-05-08T12:07:46.845Z,8.43
2023-05-08T12:10:15.673Z,8.32
2023-05-08T12:12:44.220Z,8.43
2023-05-08T12:15:16.011Z,8.20
2023-05-08T12:17:43.183Z,9.55
2023-05-08T12:20:18.280Z,8.70
2023-05-08T12:22:52.814Z,8.57
2023-05-08T12:25:20.539Z,9.75
2023-05-08T12:27:48.137Z,8.90
2023-05-08T12:30:16.476Z,7.65
2023-05-08T12:32:44.628Z,9.60
2023-05-08T12:35:12.985Z,7.85
2023-05-08T12:37:40.396Z,9.88
2023-05-08T12:40:08.631Z,8.90
2023-05-08T12:42:48.958Z,8.05
2023-05-08T12:45:25.479Z,8.65
2023-05-08T12:47:53.554Z,9.63
2023-05-08T12:50:21.553Z,9.18
2023-05-08T12:52:51.360Z,8.40
2023-05-08T12:55:30.050Z,9.15
2023-05-08T12:58:05.826Z,8.73
2023-05-08T13:00:41.414Z,8.32
2023-05-08T13:03:10.118Z,8.93
2023-05-08T13:05:41.340Z,7.65
2023-05-08T13:08:12.911Z,8.77
2023-05-08T13:10:56.408Z,8.23
2023-05-08T13:13:26.177Z,8.38
2023-05-08T13:15:57.470Z,7.75
2023-05-08T13:18:27.425Z,8.25
2023-05-08T13:20:55.157Z,8.35
2023-05-08T13:23:22.843Z,7.65
2023-05-08T13:25:50.570Z,7.90
2023-05-08T13:28:18.291Z,7.43
2023-05-08T13:30:45.182Z,7.43
2023-05-08T13:33:12.321Z,7.35
2023-05-08T13:35:39.224Z,7.18
2023-05-08T13:38:06.611Z,7.20
2023-05-08T13:40:34.232Z,7.70
2023-05-08T13:43:00.983Z,6.72
2023-05-08T13:45:28.468Z,6.15
2023-05-08T13:47:55.566Z,6.38
2023-05-08T13:50:23.230Z,5.70
2023-05-08T13:52:53.071Z,6.05
2023-05-08T13:55:22.794Z,5.57
2023-05-08T13:57:50.224Z,5.82
2023-05-08T14:00:17.339Z,5.70
2023-05-08T14:02:44.263Z,5.57
2023-05-08T14:05:12.151Z,6.38
2023-05-08T14:07:39.319Z,5.40
2023-05-08T14:10:06.463Z,5.53
2023-05-08T14:12:36.675Z,6.10
2023-05-08T14:15:07.431Z,6.28
2023-05-08T14:17:34.867Z,5.55
2023-05-08T14:20:01.886Z,6.25
2023-05-08T14:22:28.765Z,5.93
2023-05-08T14:24:56.204Z,5.65
2023-05-08T14:27:23.234Z,5.53
2023-05-08T14:29:50.574Z,5.00
2023-05-08T14:32:17.469Z,5.05
2023-05-08T14:34:44.733Z,5.95
2023-05-08T14:37:12.889Z,5.65
2023-05-08T14:39:39.708Z,5.75
2023-05-08T14:42:22.126Z,5.13
2023-05-08T14:44:50.156Z,5.85
2023-05-08T14:47:18.068Z,4.90
2023-05-08T14:49:45.020Z,5.20
2023-05-08T14:52:11.964Z,6.28
2023-05-08T14:54:39.061Z,6.45
2023-05-08T14:57:06.641Z,7.50
2023-05-08T14:59:33.689Z,8.20
2023-05-08T15:02:00.778Z,8.10
2023-05-08T15:04:27.793Z,8.02
2023-05-08T15:06:54.806Z,9.05
2023-05-08T15:09:21.557Z,8.82
2023-05-08T15:11:48.447Z,8.90
2023-05-08T15:14:15.574Z,8.52
2023-05-08T15:16:42.868Z,8.93
2023-05-08T15:19:10.171Z,8.60
2023-05-08T15:21:37.569Z,9.52
2023-05-08T15:24:04.898Z,8.85
2023-05-08T15:26:31.657Z,9.35
2023-05-08T15:28:58.613Z,8.75
2023-05-08T15:31:25.773Z,9.52
2023-05-08T15:33:52.828Z,10.82
2023-05-08T15:36:20.333Z,11.15
2023-05-08T15:38:49.206Z,11.20
2023-05-08T15:41:16.261Z,12.00
2023-05-08T15:43:45.386Z,10.98
2023-05-08T15:46:12.527Z,11.83
2023-05-08T15:48:39.499Z,10.77
2023-05-08T15:51:06.586Z,11.45
2023-05-08T15:53:34.195Z,11.65
2023-05-08T15:56:01.524Z,11.68
2023-05-08T15:58:28.676Z,11.80
2023-05-08T16:00:57.181Z,12.20
2023-05-08T16:03:24.856Z,12.33
2023-05-08T16:05:51.907Z,12.97
2023-05-08T16:08:18.685Z,11.90
2023-05-08T16:10:45.729Z,13.13
2023-05-08T16:13:12.761Z,12.87
2023-05-08T16:15:39.690Z,11.93
2023-05-08T16:18:07.226Z,10.83
2023-05-08T16:20:35.692Z,9.80
2023-05-08T16:23:03.254Z,7.90
2023-05-08T16:25:30.195Z,7.93
2023-05-08T16:27:57.074Z,7.13
2023-05-08T16:30:24.214Z,6.80
2023-05-08T16:32:51.303Z,5.63
2023-05-08T16:35:19.447Z,6.00
2023-05-08T16:37:46.601Z,5.30
2023-05-08T16:40:13.842Z,5.40
2023-05-08T16:42:40.865Z,5.70
2023-05-08T16:45:08.673Z,5.93
2023-05-08T16:47:36.218Z,6.47
2023-05-08T16:50:05.286Z,5.93
2023-05-08T16:52:33.016Z,6.47
2023-05-08T16:55:00.462Z,6.17
2023-05-08T16:57:27.953Z,6.40
2023-05-08T16:59:55.015Z,6.53
2023-05-08T17:02:22.160Z,6.37
2023-05-08T17:04:49.781Z,6.33
2023-05-08T17:07:17.838Z,6.47
2023-05-08T17:09:45.647Z,6.57
2023-05-08T17:12:12.472Z,7.70
2023-05-08T17:14:40.732Z,7.10
2023-05-08T17:17:08.096Z,6.33
2023-05-08T17:19:35.133Z,7.33
2023-05-08T17:22:02.689Z,6.97
2023-05-08T17:24:30.910Z,6.90
2023-05-08T17:26:57.860Z,6.53
2023-05-08T17:29:24.996Z,6.93
2023-05-08T17:31:51.945Z,5.70
2023-05-08T17:34:19.034Z,6.00
2023-05-08T17:36:46.272Z,5.10
2023-05-08T17:39:13.156Z,4.37
2023-05-08T17:41:39.977Z,4.87
2023-05-08T17:44:07.143Z,4.50
2023-05-08T17:46:34.061Z,4.20
2023-05-08T17:49:01.029Z,4.50
2023-05-08T17:51:27.875Z,4.63
2023-05-08T17:53:56.809Z,4.40
2023-05-08T17:56:24.431Z,4.63
2023-05-08T17:58:52.660Z,4.57
2023-05-08T18:01:20.402Z,5.20
2023-05-08T18:03:50.749Z,4.90
2023-05-08T18:06:18.343Z,5.70
2023-05-08T18:08:46.250Z,4.77
2023-05-08T18:11:22.573Z,4.80
2023-05-08T18:13:50.354Z,4.40
2023-05-08T18:16:19.098Z,3.83
2023-05-08T18:18:46.337Z,4.13
2023-05-08T18:21:13.800Z,4.40
2023-05-08T18:23:40.685Z,3.63
2023-05-08T18:26:07.917Z,4.07
2023-05-08T18:28:36.219Z,3.80
2023-05-08T18:31:03.430Z,4.20
2023-05-08T18:33:30.572Z,4.37
2023-05-08T18:35:57.497Z,4.20
2023-05-08T18:38:24.310Z,4.40
2023-05-08T18:40:51.385Z,4.90
2023-05-08T18:43:18.957Z,4.63
2023-05-08T18:45:45.790Z,5.47
2023-05-08T18:48:12.980Z,4.73
2023-05-08T18:50:40.141Z,5.50
2023-05-08T18:53:07.028Z,5.30
2023-05-08T18:55:33.837Z,5.50
2023-05-08T18:58:00.784Z,5.03
2023-05-08T19:00:27.962Z,4.80
2023-05-08T19:02:55.429Z,4.87
2023-05-08T19:05:22.525Z,5.10
2023-05-08T19:07:49.377Z,5.13
2023-05-08T19:10:16.744Z,4.57
2023-05-08T19:12:44.330Z,5.23
2023-05-08T19:15:13.875Z,5.60
2023-05-08T19:17:41.849Z,5.30
2023-05-08T19:20:09.112Z,5.43
2023-05-08T19:22:36.294Z,5.60
2023-05-08T19:25:03.731Z,6.53
2023-05-08T19:27:32.084Z,6.53
2023-05-08T19:29:59.123Z,6.43
2023-05-08T19:32:26.206Z,6.30
2023-05-08T19:34:53.592Z,6.10
2023-05-08T19:37:20.410Z,6.23
2023-05-08T19:39:47.428Z,5.83
2023-05-08T19:42:14.281Z,6.23
2023-05-08T19:44:41.362Z,6.57
2023-05-08T19:47:08.606Z,6.23
2023-05-08T19:49:35.492Z,6.27
2023-05-08T19:52:02.411Z,6.27
2023-05-08T19:54:31.021Z,6.63
2023-05-08T19:56:57.938Z,6.83
2023-05-08T19:59:25.065Z,6.57
2023-05-08T20:01:52.257Z,7.30
2023-05-08T20:04:19.752Z,6.80
2023-05-08T20:06:46.866Z,7.00
2023-05-08T20:09:13.804Z,8.30
2023-05-08T20:11:40.745Z,8.87
2023-05-08T20:14:07.961Z,8.20
2023-05-08T20:16:34.897Z,8.07
2023-05-08T20:19:01.819Z,7.87
2023-05-08T20:21:32.437Z,7.87
2023-05-08T20:24:00.044Z,7.83
2023-05-08T20:26:30.536Z,8.53
2023-05-08T20:28:57.772Z,7.47
2023-05-08T20:31:27.676Z,7.63
2023-05-08T20:33:54.949Z,7.33
2023-05-08T20:36:21.879Z,6.63
2023-05-08T20:38:48.754Z,6.97
2023-05-08T20:41:16.385Z,7.10
2023-05-08T20:43:43.676Z,6.93
2023-05-08T20:46:10.666Z,6.87
2023-05-08T20:48:38.436Z,8.13
2023-05-08T20:51:05.316Z,7.87
2023-05-08T20:53:32.953Z,7.53
2023-05-08T20:56:01.740Z,8.07
2023-05-08T20:58:28.800Z,7.10
2023-05-08T21:00:55.993Z,7.97
2023-05-08T21:03:23.100Z,7.57
2023-05-08T21:05:50.381Z,7.77
2023-05-08T21:08:17.478Z,8.40
2023-05-08T21:10:44.363Z,7.80
2023-05-08T21:13:11.621Z,8.77
2023-05-08T21:15:38.657Z,8.17
2023-05-08T21:18:05.731Z,7.87
2023-05-08T21:20:37.193Z,6.30
2023-05-08T21:23:04.340Z,5.47
2023-05-08T21:25:31.562Z,4.93
2023-05-08T21:27:58.357Z,4.50
2023-05-08T21:30:25.635Z,4.43
2023-05-08T21:32:52.418Z,4.17
2023-05-08T21:35:19.327Z,4.20
2023-05-08T21:37:46.334Z,3.87
2023-05-08T21:40:13.224Z,3.93
2023-05-08T21:42:40.723Z,4.10
2023-05-08T21:45:07.915Z,3.90
2023-05-08T21:47:34.845Z,3.70
2023-05-08T21:50:01.712Z,3.80
2023-05-08T21:52:28.697Z,4.30
2023-05-08T21:54:55.556Z,4.30
2023-05-08T21:57:22.446Z,3.83
2023-05-08T21:59:49.740Z,3.67
2023-05-08T22:02:16.585Z,4.60
2023-05-08T22:04:44.142Z,3.77
2023-05-08T22:07:11.546Z,4.00
2023-05-08T22:09:38.403Z,3.93
2023-05-08T22:12:09.196Z,4.07
2023-05-08T22:14:36.265Z,4.17
2023-05-08T22:17:03.357Z,3.87
2023-05-08T22:19:30.172Z,4.20
2023-05-08T22:21:57.215Z,3.93
2023-05-08T22:24:25.664Z,4.20
2023-05-08T22:26:52.989Z,4.40
2023-05-08T22:29:19.998Z,3.97
2023-05-08T22:31:47.838Z,4.17
2023-05-08T22:34:15.220Z,4.40
2023-05-08T22:36:42.104Z,4.80
2023-05-08T22:39:13.500Z,3.90
2023-05-08T22:41:40.378Z,4.60
2023-05-08T22:44:07.484Z,4.33
2023-05-08T22:46:35.138Z,4.17
2023-05-08T22:49:02.930Z,3.63
2023-05-08T22:51:30.647Z,4.03
2023-05-08T22:53:59.972Z,4.40
2023-05-08T22:56:28.143Z,4.50
2023-05-08T22:58:54.977Z,4.43
2023-05-08T23:01:22.595Z,4.27
2023-05-08T23:03:52.549Z,4.10
2023-05-08T23:06:19.853Z,4.13
2023-05-08T23:08:46.823Z,3.77
2023-05-08T23:11:14.212Z,4.60
2023-05-08T23:13:40.981Z,4.10
2023-05-08T23:16:07.838Z,4.40
2023-05-08T23:18:34.881Z,4.10
2023-05-08T23:21:06.656Z,3.90
2023-05-08T23:23:34.270Z,4.23
2023-05-08T23:26:04.748Z,4.20
2023-05-08T23:28:34.047Z,4.20
2023-05-08T23:31:01.934Z,4.30
2023-05-08T23:33:28.826Z,4.07
2023-05-08T23:35:57.458Z,3.97
2023-05-08T23:38:24.826Z,4.10
2023-05-08T23:40:51.841Z,4.33
2023-05-08T23:43:19.111Z,4.23
2023-05-08T23:45:46.094Z,4.03
2023-05-08T23:48:13.238Z,4.20
2023-05-08T23:50:41.021Z,4.17
2023-05-08T23:53:08.368Z,4.17
2023-05-08T23:55:36.936Z,4.40
2023-05-08T23:58:04.402Z,4.60
